Time;durP1;ratioP1;P1;durP2;ratioP2;P2;SDS_P1;SDS_P2;PMS_P1;PMS_P2;Temp;Humidity;BMP_temperature;BMP_pressure;BME280_temperature;BME280_humidity;BME280_pressure;Samples;Min_cycle;Max_cycle;Signal;HPM_P1;HPM_P2
2023/05/20 00:00:25;;;;;;;2.40;2.20;;;;;;;;;;5074328;28;20285;-89
2023/05/20 00:02:52;;;;;;;5.10;2.20;;;;;;;;;;5058563;28;20683;-89
2023/05/20 00:05:20;;;;;;;2.57;2.30;;;;;;;;;;5073704;28;20269;-93
2023/05/20 00:07:47;;;;;;;2.47;2.27;;;;;;;;;;5059806;28;20284;-90
2023/05/20 00:10:14;;;;;;;6.33;2.63;;;;;;;;;;5056276;28;20230;-90
2023/05/20 00:12:41;;;;;;;4.47;2.60;;;;;;;;;;5074715;28;20197;-90
2023/05/20 00:15:08;;;;;;;2.27;2.17;;;;;;;;;;5065703;28;20226;-90
2023/05/20 00:17:37;;;;;;;2.77;2.30;;;;;;;;;;5062943;28;20198;-90
2023/05/20 00:20:04;;;;;;;3.17;2.63;;;;;;;;;;5063272;28;20213;-90
2023/05/20 00:22:31;;;;;;;4.57;2.70;;;;;;;;;;5066551;28;20202;-90
2023/05/20 00:24:58;;;;;;;2.60;2.40;;;;;;;;;;5065611;28;20284;-89
2023/05/20 00:27:26;;;;;;;4.20;2.47;;;;;;;;;;5067031;28;20202;-89
2023/05/20 00:29:53;;;;;;;4.60;2.37;;;;;;;;;;5064626;28;20305;-89
2023/05/20 00:32:20;;;;;;;2.57;2.20;;;;;;;;;;5062842;28;20217;-90
2023/05/20 00:34:57;;;;;;;2.43;2.23;;;;;;;;;;5069089;28;20592;-90
2023/05/20 00:37:24;;;;;;;4.57;2.60;;;;;;;;;;5073514;28;20267;-90
2023/05/20 00:39:51;;;;;;;2.70;2.50;;;;;;;;;;5058197;28;20202;-89
2023/05/20 00:42:21;;;;;;;2.70;2.23;;;;;;;;;;5063936;28;20209;-90
2023/05/20 00:44:48;;;;;;;3.27;2.47;;;;;;;;;;5074224;28;20261;-90
2023/05/20 00:47:16;;;;;;;2.63;2.37;;;;;;;;;;5063789;28;20233;-90
2023/05/20 00:49:44;;;;;;;3.17;2.53;;;;;;;;;;5057720;28;20214;-90
2023/05/20 00:52:12;;;;;;;6.67;2.57;;;;;;;;;;5068376;28;20243;-90
2023/05/20 00:54:40;;;;;;;2.50;2.30;;;;;;;;;;5067479;28;20228;-90
2023/05/20 00:57:08;;;;;;;2.57;2.30;;;;;;;;;;5071199;28;20229;-90
2023/05/20 00:59:35;;;;;;;8.40;3.07;;;;;;;;;;5073913;28;20285;-90
2023/05/20 01:02:03;;;;;;;3.80;2.53;;;;;;;;;;5064514;28;20237;-90
2023/05/20 01:04:30;;;;;;;5.20;3.67;;;;;;;;;;5058540;28;20627;-90
2023/05/20 01:06:57;;;;;;;2.50;2.30;;;;;;;;;;5067801;28;20244;-90
2023/05/20 01:09:26;;;;;;;3.53;2.43;;;;;;;;;;5064057;28;20566;-90
2023/05/20 01:11:56;;;;;;;3.57;3.03;;;;;;;;;;5060902;28;20225;-89
2023/05/20 01:14:24;;;;;;;3.63;2.50;;;;;;;;;;5056548;28;20245;-90
2023/05/20 01:16:52;;;;;;;4.10;2.80;;;;;;;;;;5060595;28;20691;-90
2023/05/20 01:19:36;;;;;;;2.77;2.57;;;;;;;;;;5059904;28;20206;-90
2023/05/20 01:22:06;;;;;;;4.73;2.63;;;;;;;;;;5060111;28;20242;-90
2023/05/20 01:24:35;;;;;;;2.83;2.50;;;;;;;;;;5069579;28;20313;-90
2023/05/20 01:27:02;;;;;;;2.63;2.43;;;;;;;;;;5079507;28;20235;-90
2023/05/20 01:29:31;;;;;;;3.10;2.80;;;;;;;;;;5068149;28;20238;-90
2023/05/20 01:31:59;;;;;;;3.40;2.40;;;;;;;;;;5075308;28;20249;-90
2023/05/20 01:34:26;;;;;;;4.00;2.80;;;;;;;;;;5078417;28;20217;-90
2023/05/20 01:36:53;;;;;;;2.57;2.37;;;;;;;;;;5079454;28;20229;-89
2023/05/20 01:39:21;;;;;;;4.43;3.30;;;;;;;;;;5068975;28;20206;-90
2023/05/20 01:41:50;;;;;;;3.07;2.80;;;;;;;;;;5073739;28;20229;-90
2023/05/20 01:44:17;;;;;;;3.50;2.70;;;;;;;;;;5063448;28;20230;-90
2023/05/20 01:46:49;;;;;;;3.67;2.80;;;;;;;;;;5073837;28;20229;-90
2023/05/20 01:49:16;;;;;;;3.70;2.57;;;;;;;;;;5068324;28;20224;-90
2023/05/20 01:51:43;;;;;;;4.07;2.90;;;;;;;;;;5059425;28;20230;-90
2023/05/20 01:54:10;;;;;;;3.17;2.93;;;;;;;;;;5059599;28;20611;-90
2023/05/20 01:56:37;;;;;;;4.40;2.90;;;;;;;;;;5064079;28;20225;-90
2023/05/20 01:59:05;;;;;;;3.03;2.60;;;;;;;;;;5071959;28;20198;-90
2023/05/20 02:01:32;;;;;;;4.23;2.70;;;;;;;;;;5079767;28;20251;-90
2023/05/20 02:03:59;;;;;;;3.20;2.60;;;;;;;;;;5079521;28;20292;-91
2023/05/20 02:06:26;;;;;;;3.10;2.80;;;;;;;;;;5066898;28;20611;-90
2023/05/20 02:08:53;;;;;;;2.80;2.40;;;;;;;;;;5067033;28;20221;-91
2023/05/20 02:11:21;;;;;;;6.90;3.33;;;;;;;;;;5085506;28;20229;-90
2023/05/20 02:13:48;;;;;;;3.67;2.50;;;;;;;;;;5079776;28;20605;-91
2023/05/20 02:16:16;;;;;;;4.40;2.83;;;;;;;;;;5069575;28;20226;-91
2023/05/20 02:18:43;;;;;;;3.47;3.10;;;;;;;;;;5073699;28;20251;-90
2023/05/20 02:21:10;;;;;;;3.03;2.83;;;;;;;;;;5072299;28;20631;-90
2023/05/20 02:23:38;;;;;;;2.93;2.63;;;;;;;;;;5068401;28;20652;-90
2023/05/20 02:26:05;;;;;;;3.27;2.97;;;;;;;;;;5065388;28;20230;-90
2023/05/20 02:28:32;;;;;;;3.10;2.80;;;;;;;;;;5060697;28;20309;-91
2023/05/20 02:30:59;;;;;;;3.07;2.53;;;;;;;;;;5067879;28;20221;-90
2023/05/20 02:33:28;;;;;;;3.20;2.70;;;;;;;;;;5062499;28;20286;-90
2023/05/20 02:35:55;;;;;;;3.97;2.90;;;;;;;;;;5064070;28;20232;-90
2023/05/20 02:38:22;;;;;;;6.50;3.10;;;;;;;;;;5058707;28;20198;-90
2023/05/20 02:40:49;;;;;;;3.30;3.00;;;;;;;;;;5075865;28;20229;-90
2023/05/20 02:43:16;;;;;;;3.27;2.77;;;;;;;;;;5058027;28;20212;-90
2023/05/20 02:45:43;;;;;;;2.80;2.60;;;;;;;;;;5060611;28;20239;-90
2023/05/20 02:48:10;;;;;;;5.33;3.00;;;;;;;;;;5067093;28;20201;-90
2023/05/20 02:50:40;;;;;;;3.50;3.20;;;;;;;;;;5061406;28;20226;-91
2023/05/20 02:53:07;;;;;;;2.87;2.53;;;;;;;;;;5057248;28;20209;-90
2023/05/20 02:55:35;;;;;;;2.97;2.73;;;;;;;;;;5066906;28;20637;-91
2023/05/20 02:58:02;;;;;;;3.07;2.77;;;;;;;;;;5064037;28;20194;-91
2023/05/20 03:00:30;;;;;;;3.23;2.93;;;;;;;;;;5063641;28;20232;-91
2023/05/20 03:02:57;;;;;;;3.17;2.97;;;;;;;;;;5067543;28;20221;-91
2023/05/20 03:05:26;;;;;;;3.93;2.73;;;;;;;;;;5063420;28;20244;-91
2023/05/20 03:07:54;;;;;;;3.17;2.87;;;;;;;;;;5056143;28;20216;-91
2023/05/20 03:10:21;;;;;;;3.57;3.27;;;;;;;;;;5055429;28;20307;-91
2023/05/20 03:12:49;;;;;;;3.47;3.17;;;;;;;;;;5058717;28;20656;-91
2023/05/20 03:15:16;;;;;;;2.90;2.70;;;;;;;;;;5055216;28;20241;-91
2023/05/20 03:17:43;;;;;;;3.27;2.97;;;;;;;;;;5055962;28;20206;-91
2023/05/20 03:20:11;;;;;;;3.73;3.27;;;;;;;;;;5063639;28;20262;-91
2023/05/20 03:22:38;;;;;;;2.97;2.67;;;;;;;;;;5061114;28;20216;-91
2023/05/20 03:25:08;;;;;;;3.27;3.07;;;;;;;;;;5060594;28;20229;-91
2023/05/20 03:27:36;;;;;;;3.20;2.90;;;;;;;;;;5067291;28;20209;-91
2023/05/20 03:30:03;;;;;;;3.43;3.00;;;;;;;;;;5075014;28;20615;-91
2023/05/20 03:32:30;;;;;;;3.37;3.07;;;;;;;;;;5054936;28;20202;-91
2023/05/20 03:34:58;;;;;;;3.60;2.87;;;;;;;;;;5064432;28;20229;-91
2023/05/20 03:37:25;;;;;;;3.07;2.87;;;;;;;;;;5062630;28;20251;-91
2023/05/20 03:39:53;;;;;;;3.50;3.20;;;;;;;;;;5055353;28;20202;-91
2023/05/20 03:42:21;;;;;;;3.80;2.80;;;;;;;;;;5071305;28;20292;-91
2023/05/20 03:44:48;;;;;;;4.80;2.90;;;;;;;;;;5054932;28;20233;-91
2023/05/20 03:47:15;;;;;;;3.43;2.87;;;;;;;;;;5056265;28;20249;-91
2023/05/20 03:49:42;;;;;;;4.37;3.33;;;;;;;;;;5058237;28;20225;-92
2023/05/20 03:52:09;;;;;;;4.10;3.53;;;;;;;;;;5068585;28;20275;-92
2023/05/20 03:54:36;;;;;;;3.00;2.80;;;;;;;;;;5071427;28;20222;-92
2023/05/20 03:57:03;;;;;;;3.33;3.10;;;;;;;;;;5062955;28;20233;-92
2023/05/20 03:59:32;;;;;;;4.00;3.13;;;;;;;;;;5070345;28;20210;-91
2023/05/20 04:01:59;;;;;;;3.87;3.47;;;;;;;;;;5054325;28;20723;-90
2023/05/20 04:04:26;;;;;;;3.20;3.00;;;;;;;;;;5063115;28;20232;-92
2023/05/20 04:06:53;;;;;;;3.27;3.07;;;;;;;;;;5060833;28;20228;-92
2023/05/20 04:09:20;;;;;;;3.27;2.97;;;;;;;;;;5066799;28;20221;-91
2023/05/20 04:11:47;;;;;;;3.50;3.20;;;;;;;;;;5066336;28;20233;-92
2023/05/20 04:14:14;;;;;;;3.97;3.67;;;;;;;;;;5057474;28;20229;-91
2023/05/20 04:16:43;;;;;;;3.70;3.40;;;;;;;;;;5057864;28;20256;-92
2023/05/20 04:19:11;;;;;;;3.90;3.53;;;;;;;;;;5074697;28;20213;-91
2023/05/20 04:21:38;;;;;;;3.93;3.57;;;;;;;;;;5065733;28;20229;-92
2023/05/20 04:24:05;;;;;;;4.20;3.30;;;;;;;;;;5058799;28;20213;-92
2023/05/20 04:26:34;;;;;;;4.73;3.60;;;;;;;;;;5061958;28;20237;-91
2023/05/20 04:29:03;;;;;;;3.87;3.40;;;;;;;;;;5062715;28;20228;-91
2023/05/20 04:31:30;;;;;;;4.30;3.17;;;;;;;;;;5061808;28;20228;-92
2023/05/20 04:33:58;;;;;;;3.97;3.67;;;;;;;;;;5060640;28;20202;-91
2023/05/20 04:36:27;;;;;;;3.63;3.33;;;;;;;;;;5064537;28;20229;-91
2023/05/20 04:38:54;;;;;;;4.33;3.57;;;;;;;;;;5061137;28;20261;-92
2023/05/20 04:41:21;;;;;;;3.63;3.30;;;;;;;;;;5055908;28;20301;-90
2023/05/20 04:43:48;;;;;;;3.70;3.40;;;;;;;;;;5053877;28;20206;-91
2023/05/20 04:46:15;;;;;;;4.10;3.70;;;;;;;;;;5062135;28;20746;-92
2023/05/20 04:48:43;;;;;;;3.50;3.20;;;;;;;;;;5067056;28;20195;-89
2023/05/20 04:51:11;;;;;;;4.10;3.70;;;;;;;;;;5060946;28;20248;-88
2023/05/20 04:53:39;;;;;;;3.73;3.37;;;;;;;;;;5065313;28;20202;-88
2023/05/20 04:56:07;;;;;;;3.80;3.50;;;;;;;;;;5065986;28;20341;-88
2023/05/20 04:58:34;;;;;;;5.07;3.90;;;;;;;;;;5061920;28;20210;-88
2023/05/20 05:01:01;;;;;;;3.90;3.60;;;;;;;;;;5059782;28;20252;-88
2023/05/20 05:03:28;;;;;;;5.10;4.03;;;;;;;;;;5056468;28;20210;-88
2023/05/20 05:05:56;;;;;;;4.27;3.83;;;;;;;;;;5064885;28;20225;-89
2023/05/20 05:08:25;;;;;;;5.27;3.50;;;;;;;;;;5063944;28;20571;-88
2023/05/20 05:10:52;;;;;;;4.53;4.10;;;;;;;;;;5052897;28;20380;-88
2023/05/20 05:13:19;;;;;;;4.40;4.00;;;;;;;;;;5062519;28;20262;-89
2023/05/20 05:15:46;;;;;;;5.77;4.10;;;;;;;;;;5065237;28;20229;-89
2023/05/20 05:18:17;;;;;;;5.53;4.60;;;;;;;;;;5064995;28;20672;-88
2023/05/20 05:20:44;;;;;;;6.27;4.63;;;;;;;;;;5065519;28;20246;-88
2023/05/20 05:23:11;;;;;;;4.00;3.70;;;;;;;;;;5077712;28;20215;-90
2023/05/20 05:25:39;;;;;;;4.57;4.07;;;;;;;;;;5071396;28;20678;-88
2023/05/20 05:28:07;;;;;;;5.43;4.13;;;;;;;;;;5070177;28;20203;-88
2023/05/20 05:30:34;;;;;;;5.27;4.27;;;;;;;;;;5063130;28;20649;-89
2023/05/20 05:33:01;;;;;;;4.70;4.30;;;;;;;;;;5070318;28;20206;-89
2023/05/20 05:35:28;;;;;;;4.67;4.27;;;;;;;;;;5063165;28;20237;-89
2023/05/20 05:37:55;;;;;;;8.07;4.50;;;;;;;;;;5059625;28;20206;-89
2023/05/20 05:40:22;;;;;;;6.57;4.50;;;;;;;;;;5070211;28;22019;-91
2023/05/20 05:42:50;;;;;;;6.20;5.00;;;;;;;;;;5061739;28;20209;-92
2023/05/20 05:45:17;;;;;;;5.07;4.57;;;;;;;;;;5061462;28;20244;-91
2023/05/20 05:47:44;;;;;;;4.73;4.33;;;;;;;;;;5069072;28;20206;-91
2023/05/20 05:50:12;;;;;;;6.43;4.87;;;;;;;;;;5059860;28;20244;-91
2023/05/20 05:52:39;;;;;;;5.30;4.70;;;;;;;;;;5063648;28;20755;-91
2023/05/20 05:55:06;;;;;;;5.63;5.00;;;;;;;;;;5069735;28;20260;-91
2023/05/20 05:57:33;;;;;;;4.90;4.50;;;;;;;;;;5062503;28;20679;-91
2023/05/20 06:00:02;;;;;;;5.23;4.70;;;;;;;;;;5058947;28;20198;-90
2023/05/20 06:02:29;;;;;;;5.57;4.97;;;;;;;;;;5066513;28;20271;-90
2023/05/20 06:04:56;;;;;;;6.93;5.40;;;;;;;;;;5064455;28;20725;-90
2023/05/20 06:07:23;;;;;;;5.63;5.13;;;;;;;;;;5065801;28;20199;-89
2023/05/20 06:09:50;;;;;;;6.60;4.97;;;;;;;;;;5068094;28;20224;-90
2023/05/20 06:12:17;;;;;;;5.77;5.27;;;;;;;;;;5060091;28;20213;-90
2023/05/20 06:14:44;;;;;;;7.03;5.50;;;;;;;;;;5060114;28;20244;-89
2023/05/20 06:17:13;;;;;;;6.27;5.33;;;;;;;;;;5067742;28;20233;-89
2023/05/20 06:19:40;;;;;;;6.57;5.53;;;;;;;;;;5067978;28;20193;-90
2023/05/20 06:22:07;;;;;;;6.93;5.63;;;;;;;;;;5067517;28;20225;-89
2023/05/20 06:24:34;;;;;;;9.07;5.60;;;;;;;;;;5075882;28;20237;-89
2023/05/20 06:27:01;;;;;;;5.80;4.80;;;;;;;;;;5075924;28;20706;-90
2023/05/20 06:29:29;;;;;;;5.43;4.63;;;;;;;;;;5067827;28;20213;-90
2023/05/20 06:31:56;;;;;;;5.90;5.10;;;;;;;;;;5067725;28;20231;-89
2023/05/20 06:34:24;;;;;;;5.47;4.97;;;;;;;;;;5067704;28;20225;-90
2023/05/20 06:36:51;;;;;;;5.53;5.03;;;;;;;;;;5075203;28;20702;-91
2023/05/20 06:39:18;;;;;;;8.23;4.50;;;;;;;;;;5067842;28;20684;-90
2023/05/20 06:41:45;;;;;;;7.73;4.93;;;;;;;;;;5059204;28;20229;-91
2023/05/20 06:44:12;;;;;;;5.63;5.00;;;;;;;;;;5059940;28;20226;-90
2023/05/20 06:46:39;;;;;;;5.17;4.67;;;;;;;;;;5062772;28;20236;-90
2023/05/20 06:49:06;;;;;;;5.03;4.53;;;;;;;;;;5067855;28;20213;-90
2023/05/20 06:51:35;;;;;;;8.67;5.43;;;;;;;;;;5059531;28;20234;-90
2023/05/20 06:54:02;;;;;;;5.03;4.47;;;;;;;;;;5057724;28;20202;-89
2023/05/20 06:56:30;;;;;;;4.63;4.10;;;;;;;;;;5065080;28;20228;-90
2023/05/20 06:58:57;;;;;;;5.50;4.90;;;;;;;;;;5067154;28;20197;-90
2023/05/20 07:01:24;;;;;;;5.80;4.93;;;;;;;;;;5066218;28;20229;-89
2023/05/20 07:03:51;;;;;;;5.53;4.90;;;;;;;;;;5060586;28;20201;-90
2023/05/20 07:06:18;;;;;;;6.80;4.87;;;;;;;;;;5067041;28;20257;-90
2023/05/20 07:09:10;;;;;;;5.80;4.70;;;;;;;;;;5066621;28;20209;-91
2023/05/20 07:11:54;;;;;;;5.70;5.10;;;;;;;;;;5073172;28;20244;-92
2023/05/20 07:14:35;;;;;;;5.70;4.60;;;;;;;;;;5066355;28;20229;-90
2023/05/20 07:17:02;;;;;;;7.50;4.80;;;;;;;;;;5060570;28;20225;-91
2023/05/20 07:19:36;;;;;;;5.70;4.77;;;;;;;;;;5065724;28;20220;-90
2023/05/20 07:22:03;;;;;;;5.87;4.67;;;;;;;;;;5060215;28;20225;-90
2023/05/20 07:24:30;;;;;;;4.60;4.20;;;;;;;;;;5064306;28;20234;-90
2023/05/20 07:26:58;;;;;;;6.63;4.80;;;;;;;;;;5066133;28;20229;-85
2023/05/20 07:29:25;;;;;;;5.37;4.80;;;;;;;;;;5065597;28;20202;-93
2023/05/20 07:31:52;;;;;;;5.63;4.80;;;;;;;;;;5063112;28;20225;-89
2023/05/20 07:34:21;;;;;;;4.80;4.37;;;;;;;;;;5054949;28;20222;-94
2023/05/20 07:36:50;;;;;;;5.70;4.63;;;;;;;;;;5058315;28;20253;-92
2023/05/20 07:39:17;;;;;;;5.73;4.60;;;;;;;;;;5064624;28;20206;-92
2023/05/20 07:42:04;;;;;;;7.37;5.37;;;;;;;;;;5057597;28;20222;-90
2023/05/20 07:44:31;;;;;;;4.80;4.37;;;;;;;;;;5063773;28;20225;-90
2023/05/20 07:46:58;;;;;;;6.20;4.77;;;;;;;;;;5074194;28;20229;-91
2023/05/20 07:49:25;;;;;;;5.17;4.50;;;;;;;;;;5072059;28;20208;-93
2023/05/20 07:51:52;;;;;;;5.17;4.27;;;;;;;;;;5062122;28;20240;-92
2023/05/20 07:54:19;;;;;;;4.73;4.33;;;;;;;;;;5054491;28;20237;-93
2023/05/20 07:56:46;;;;;;;6.27;3.97;;;;;;;;;;5074233;28;20241;-91
2023/05/20 07:59:14;;;;;;;7.03;4.50;;;;;;;;;;5067830;28;20210;-90
2023/05/20 08:01:42;;;;;;;4.57;3.67;;;;;;;;;;5067306;28;20229;-93
2023/05/20 08:04:09;;;;;;;5.00;4.60;;;;;;;;;;5068537;28;20289;-92
2023/05/20 08:06:36;;;;;;;4.47;4.07;;;;;;;;;;5063863;28;20283;-93
2023/05/20 08:09:03;;;;;;;5.03;4.40;;;;;;;;;;5074356;28;20675;-92
2023/05/20 08:11:30;;;;;;;4.35;3.95;;;;;;;;;;5057023;28;20320;-94
2023/05/20 08:13:57;;;;;;;6.13;4.68;;;;;;;;;;5066099;28;20193;-89
2023/05/20 08:16:26;;;;;;;6.00;4.40;;;;;;;;;;5057147;28;20229;-89
2023/05/20 08:18:53;;;;;;;5.30;4.80;;;;;;;;;;5062004;28;20199;-89
2023/05/20 08:21:20;;;;;;;4.22;3.90;;;;;;;;;;5061461;28;20230;-90
2023/05/20 08:23:47;;;;;;;6.00;4.30;;;;;;;;;;5064043;28;20257;-87
2023/05/20 08:26:14;;;;;;;4.07;3.67;;;;;;;;;;5073602;28;20233;-96
2023/05/20 08:28:42;;;;;;;4.78;4.38;;;;;;;;;;5057835;28;20217;-94
2023/05/20 08:31:09;;;;;;;5.05;4.55;;;;;;;;;;5069217;28;20229;-90
2023/05/20 08:33:38;;;;;;;5.07;4.38;;;;;;;;;;5063740;28;20204;-94
2023/05/20 08:36:05;;;;;;;5.22;4.20;;;;;;;;;;5062290;28;20229;-93
2023/05/20 08:38:32;;;;;;;5.25;4.35;;;;;;;;;;5066468;28;20203;-86
2023/05/20 08:41:00;;;;;;;4.43;4.03;;;;;;;;;;5059473;28;20729;-85
2023/05/20 08:43:29;;;;;;;4.93;4.20;;;;;;;;;;5065166;28;20212;-87
2023/05/20 08:46:05;;;;;;;5.70;4.68;;;;;;;;;;5068795;28;20232;-88
2023/05/20 08:48:54;;;;;;;4.32;3.92;;;;;;;;;;5061373;28;20202;-87
2023/05/20 08:51:22;;;;;;;5.82;4.57;;;;;;;;;;5057764;28;20232;-88
2023/05/20 08:53:49;;;;;;;4.47;4.07;;;;;;;;;;5059969;28;20194;-87
2023/05/20 08:56:16;;;;;;;4.80;4.30;;;;;;;;;;5058357;28;20241;-87
2023/05/20 08:58:45;;;;;;;6.03;4.63;;;;;;;;;;5059525;28;20209;-87
2023/05/20 09:01:12;;;;;;;4.75;4.25;;;;;;;;;;5057663;28;20230;-87
2023/05/20 09:03:53;;;;;;;4.95;4.50;;;;;;;;;;5061902;28;20205;-88
2023/05/20 09:06:20;;;;;;;6.13;4.00;;;;;;;;;;5062153;28;20241;-89
2023/05/20 09:08:51;;;;;;;4.40;4.00;;;;;;;;;;5064845;28;20201;-89
2023/05/20 09:11:18;;;;;;;5.07;4.57;;;;;;;;;;5074377;28;20715;-89
2023/05/20 09:13:45;;;;;;;4.75;4.32;;;;;;;;;;5062440;28;20209;-88
2023/05/20 09:16:18;;;;;;;4.65;4.22;;;;;;;;;;5059268;28;20237;-88
2023/05/20 09:18:46;;;;;;;4.70;4.25;;;;;;;;;;5062979;28;20229;-89
2023/05/20 09:21:13;;;;;;;4.57;4.13;;;;;;;;;;5062437;28;20228;-87
2023/05/20 09:23:40;;;;;;;4.95;4.28;;;;;;;;;;5063064;28;20210;-89
2023/05/20 09:26:09;;;;;;;5.28;4.68;;;;;;;;;;5067822;28;20262;-88
2023/05/20 09:28:38;;;;;;;4.70;4.30;;;;;;;;;;5064542;28;20288;-87
2023/05/20 09:31:07;;;;;;;4.68;3.80;;;;;;;;;;5061232;28;20230;-92
2023/05/20 09:33:39;;;;;;;4.00;3.70;;;;;;;;;;5065677;28;20612;-90
2023/05/20 09:36:08;;;;;;;4.70;4.30;;;;;;;;;;5068973;28;20232;-89
2023/05/20 09:38:38;;;;;;;4.90;4.25;;;;;;;;;;5069905;28;20698;-90
2023/05/20 09:41:07;;;;;;;5.05;4.32;;;;;;;;;;5068726;28;20267;-89
2023/05/20 09:43:36;;;;;;;6.13;4.53;;;;;;;;;;5069895;28;20258;-90
2023/05/20 09:46:04;;;;;;;4.75;4.35;;;;;;;;;;5065052;28;20237;-89
2023/05/20 09:48:32;;;;;;;6.60;4.32;;;;;;;;;;5073719;28;20670;-87
2023/05/20 09:51:00;;;;;;;4.45;4.05;;;;;;;;;;5068164;28;20233;-88
2023/05/20 09:53:27;;;;;;;4.50;4.10;;;;;;;;;;5063033;28;20225;-88
2023/05/20 09:55:55;;;;;;;4.55;3.90;;;;;;;;;;5060977;28;20234;-88
2023/05/20 09:58:23;;;;;;;4.80;4.40;;;;;;;;;;5071969;28;20277;-88
2023/05/20 10:00:52;;;;;;;4.72;3.90;;;;;;;;;;5068554;28;20236;-90
2023/05/20 10:03:22;;;;;;;4.50;3.88;;;;;;;;;;5066085;28;20727;-87
2023/05/20 10:05:51;;;;;;;6.03;4.47;;;;;;;;;;5065962;28;20577;-86
2023/05/20 10:08:23;;;;;;;4.65;3.92;;;;;;;;;;5075796;28;20201;-86
2023/05/20 10:10:53;;;;;;;4.40;3.88;;;;;;;;;;5063728;28;20509;-85
2023/05/20 10:13:25;;;;;;;4.53;4.13;;;;;;;;;;5057231;28;20202;-89
2023/05/20 10:15:55;;;;;;;6.57;4.28;;;;;;;;;;5075328;28;20325;-85
2023/05/20 10:18:31;;;;;;;5.07;4.45;;;;;;;;;;5076120;28;20205;-85
2023/05/20 10:20:58;;;;;;;4.70;4.28;;;;;;;;;;5062938;28;20227;-88
2023/05/20 10:23:28;;;;;;;4.28;3.88;;;;;;;;;;5076990;28;20273;-88
2023/05/20 10:25:56;;;;;;;5.28;4.60;;;;;;;;;;5063674;28;20222;-87
2023/05/20 10:28:32;;;;;;;5.25;4.38;;;;;;;;;;5059499;28;20205;-88
2023/05/20 10:31:00;;;;;;;4.65;4.22;;;;;;;;;;5067633;28;20228;-88
2023/05/20 10:33:28;;;;;;;4.30;3.90;;;;;;;;;;5064458;28;20206;-89
2023/05/20 10:35:55;;;;;;;4.32;3.92;;;;;;;;;;5063053;28;20237;-87
2023/05/20 10:38:23;;;;;;;4.22;3.83;;;;;;;;;;5063516;28;20677;-86
2023/05/20 10:40:50;;;;;;;5.07;4.30;;;;;;;;;;5063693;28;20241;-87
2023/05/20 10:43:18;;;;;;;4.78;4.35;;;;;;;;;;5056008;28;20210;-87
2023/05/20 10:45:49;;;;;;;4.78;4.10;;;;;;;;;;5055270;28;20331;-87
2023/05/20 10:48:26;;;;;;;5.30;4.13;;;;;;;;;;5055106;28;20264;-88
2023/05/20 10:50:58;;;;;;;5.47;4.63;;;;;;;;;;5059682;28;20233;-88
2023/05/20 10:53:26;;;;;;;4.90;4.32;;;;;;;;;;5066808;28;20289;-88
2023/05/20 10:55:54;;;;;;;4.95;4.47;;;;;;;;;;5064172;28;20237;-87
2023/05/20 10:58:22;;;;;;;4.47;4.07;;;;;;;;;;5064743;28;20299;-89
2023/05/20 11:00:49;;;;;;;4.95;4.50;;;;;;;;;;5065475;28;20229;-89
2023/05/20 11:03:17;;;;;;;4.88;4.38;;;;;;;;;;5063425;28;20206;-89
2023/05/20 11:05:47;;;;;;;5.53;4.78;;;;;;;;;;5062431;28;20229;-89
2023/05/20 11:08:14;;;;;;;4.80;4.40;;;;;;;;;;5062422;28;20631;-89
2023/05/20 11:10:44;;;;;;;4.82;4.43;;;;;;;;;;5062910;28;20233;-87
2023/05/20 11:13:12;;;;;;;5.13;4.68;;;;;;;;;;5066167;28;20226;-88
2023/05/20 11:15:40;;;;;;;4.05;3.75;;;;;;;;;;5057890;28;20234;-89
2023/05/20 11:18:07;;;;;;;4.50;4.05;;;;;;;;;;5059953;28;20288;-86
2023/05/20 11:20:34;;;;;;;8.23;4.50;;;;;;;;;;5069185;28;20235;-87
2023/05/20 11:23:06;;;;;;;4.40;4.00;;;;;;;;;;5065450;28;20697;-87
2023/05/20 11:27:40;;;;;;;6.35;4.57;;;;;;;;;;5150793;27;20941;-83
2023/05/20 11:30:08;;;;;;;5.28;4.78;;;;;;;;;;5144351;27;20213;-79
2023/05/20 11:32:35;;;;;;;5.10;4.63;;;;;;;;;;5117408;28;20208;-81
2023/05/20 11:35:03;;;;;;;5.90;5.22;;;;;;;;;;5104500;27;20223;-82
2023/05/20 11:37:30;;;;;;;5.95;4.93;;;;;;;;;;5113278;27;20224;-79
2023/05/20 11:40:06;;;;;;;5.50;4.90;;;;;;;;;;5117159;27;20228;-82
2023/05/20 11:42:33;;;;;;;5.93;4.70;;;;;;;;;;5109128;28;20210;-83
2023/05/20 11:45:02;;;;;;;5.65;4.97;;;;;;;;;;5112021;27;20227;-85
2023/05/20 11:47:31;;;;;;;5.43;4.55;;;;;;;;;;5113700;27;20223;-85
2023/05/20 11:49:58;;;;;;;5.47;4.85;;;;;;;;;;5110228;27;20207;-82
2023/05/20 11:52:25;;;;;;;6.30;5.00;;;;;;;;;;5113806;27;20208;-83
2023/05/20 11:54:53;;;;;;;4.82;4.43;;;;;;;;;;5110462;27;20236;-83
2023/05/20 11:57:20;;;;;;;6.07;5.13;;;;;;;;;;5114650;27;20577;-82
2023/05/20 11:59:47;;;;;;;5.45;4.93;;;;;;;;;;5109302;28;20215;-87
2023/05/20 12:02:16;;;;;;;6.30;5.40;;;;;;;;;;5118269;27;20220;-87
2023/05/20 12:04:43;;;;;;;5.38;4.53;;;;;;;;;;5117675;28;20223;-84
2023/05/20 12:07:10;;;;;;;5.65;4.70;;;;;;;;;;5113235;28;20230;-86
2023/05/20 12:09:37;;;;;;;8.55;4.85;;;;;;;;;;5121312;27;20207;-86
2023/05/20 12:12:04;;;;;;;5.30;4.90;;;;;;;;;;5117490;27;20224;-87
2023/05/20 12:14:31;;;;;;;5.30;4.80;;;;;;;;;;5117571;28;20733;-85
2023/05/20 12:16:58;;;;;;;5.80;5.10;;;;;;;;;;5120315;27;20234;-85
2023/05/20 12:19:27;;;;;;;5.80;5.25;;;;;;;;;;5114307;27;20642;-82
2023/05/20 12:21:54;;;;;;;5.20;4.70;;;;;;;;;;5116298;27;20739;-82
2023/05/20 12:24:21;;;;;;;6.72;4.40;;;;;;;;;;5116453;28;20220;-82
2023/05/20 12:26:48;;;;;;;4.82;4.43;;;;;;;;;;5116040;28;20228;-82
2023/05/20 12:29:15;;;;;;;5.63;5.03;;;;;;;;;;5108151;28;20200;-82
2023/05/20 12:31:42;;;;;;;5.68;5.18;;;;;;;;;;5115922;27;20224;-82
2023/05/20 12:34:09;;;;;;;5.53;5.03;;;;;;;;;;5107773;28;20207;-83
2023/05/20 12:36:37;;;;;;;6.15;4.93;;;;;;;;;;5115698;27;20648;-80
2023/05/20 12:39:05;;;;;;;6.05;4.70;;;;;;;;;;5093834;28;20868;-81
2023/05/20 12:41:32;;;;;;;5.90;5.30;;;;;;;;;;5093802;28;20313;-80
2023/05/20 12:43:59;;;;;;;5.15;4.53;;;;;;;;;;5094022;28;21496;-82
2023/05/20 12:46:26;;;;;;;5.60;4.85;;;;;;;;;;5093557;27;20612;-82
2023/05/20 12:48:53;;;;;;;6.18;4.60;;;;;;;;;;5102580;28;20583;-81
2023/05/20 12:51:20;;;;;;;4.57;4.18;;;;;;;;;;5102158;27;20654;-82
2023/05/20 12:53:48;;;;;;;6.60;5.55;;;;;;;;;;5102186;28;20208;-81
2023/05/20 12:56:16;;;;;;;5.93;5.30;;;;;;;;;;5088423;27;20227;-88
2023/05/20 12:58:43;;;;;;;5.50;5.00;;;;;;;;;;5110002;28;20200;-84
2023/05/20 13:01:10;;;;;;;4.85;4.45;;;;;;;;;;5099837;27;20235;-86
2023/05/20 13:03:37;;;;;;;5.75;5.10;;;;;;;;;;5104714;28;20199;-88
2023/05/20 13:06:04;;;;;;;4.95;4.55;;;;;;;;;;5102965;27;21936;-87
2023/05/20 13:08:31;;;;;;;5.07;4.57;;;;;;;;;;5104400;28;20212;-86
2023/05/20 13:11:00;;;;;;;5.63;4.95;;;;;;;;;;5107613;28;20236;-87
2023/05/20 13:13:27;;;;;;;5.65;5.15;;;;;;;;;;5102251;28;20212;-87
2023/05/20 13:15:55;;;;;;;6.25;4.80;;;;;;;;;;5103886;27;20239;-86
2023/05/20 13:18:22;;;;;;;6.45;4.75;;;;;;;;;;5095501;28;20270;-87
2023/05/20 13:20:49;;;;;;;6.00;5.45;;;;;;;;;;5097762;28;20232;-87
2023/05/20 13:23:16;;;;;;;5.72;5.22;;;;;;;;;;5098935;28;20716;-88
2023/05/20 13:25:44;;;;;;;6.03;5.50;;;;;;;;;;5090046;27;20254;-85
2023/05/20 13:28:15;;;;;;;7.18;5.20;;;;;;;;;;5094259;28;20233;-87
2023/05/20 13:30:42;;;;;;;5.63;5.10;;;;;;;;;;5098970;28;20225;-86
2023/05/20 13:33:09;;;;;;;7.25;5.85;;;;;;;;;;5106277;28;20212;-87
2023/05/20 13:35:36;;;;;;;5.45;5.00;;;;;;;;;;5102883;27;20243;-87
2023/05/20 13:38:05;;;;;;;6.75;5.40;;;;;;;;;;5096326;28;20227;-89
2023/05/20 13:40:32;;;;;;;5.65;5.10;;;;;;;;;;5098565;28;20236;-88
2023/05/20 13:42:59;;;;;;;5.63;5.13;;;;;;;;;;5097706;28;20620;-88
2023/05/20 13:45:28;;;;;;;6.15;5.55;;;;;;;;;;5099651;28;20320;-88
2023/05/20 13:47:55;;;;;;;5.88;5.38;;;;;;;;;;5100460;28;20214;-86
2023/05/20 13:50:22;;;;;;;5.95;5.45;;;;;;;;;;5096424;28;20235;-85
2023/05/20 13:52:49;;;;;;;6.13;5.55;;;;;;;;;;5099015;28;20208;-87
2023/05/20 13:55:16;;;;;;;6.40;5.25;;;;;;;;;;5101634;28;20239;-87
2023/05/20 13:57:43;;;;;;;7.95;5.78;;;;;;;;;;5109053;28;20204;-86
2023/05/20 14:00:11;;;;;;;6.53;5.15;;;;;;;;;;5085362;28;20702;-87
2023/05/20 14:02:41;;;;;;;6.03;5.45;;;;;;;;;;5096243;28;20197;-85
2023/05/20 14:05:08;;;;;;;6.43;5.70;;;;;;;;;;5104709;28;20225;-86
2023/05/20 14:07:36;;;;;;;7.45;6.28;;;;;;;;;;5097457;28;20224;-85
2023/05/20 14:10:04;;;;;;;6.25;5.63;;;;;;;;;;5090402;28;20204;-86
2023/05/20 14:12:31;;;;;;;6.10;5.43;;;;;;;;;;5087841;28;20834;-86
2023/05/20 14:14:58;;;;;;;6.18;5.53;;;;;;;;;;5093181;28;20221;-86
2023/05/20 14:17:25;;;;;;;7.03;5.70;;;;;;;;;;5095662;28;20207;-89
2023/05/20 14:19:53;;;;;;;6.03;5.43;;;;;;;;;;5094935;28;20208;-88
2023/05/20 14:22:20;;;;;;;6.18;5.57;;;;;;;;;;5096733;28;20205;-89
2023/05/20 14:24:47;;;;;;;6.38;5.80;;;;;;;;;;5094735;28;20224;-89
2023/05/20 14:27:14;;;;;;;5.90;5.40;;;;;;;;;;5093194;28;20237;-85
2023/05/20 14:29:41;;;;;;;6.88;6.22;;;;;;;;;;5093673;28;20318;-87
2023/05/20 14:32:10;;;;;;;9.90;5.85;;;;;;;;;;5094917;28;20314;-85
2023/05/20 14:34:37;;;;;;;6.05;5.32;;;;;;;;;;5093181;28;20252;-88
2023/05/20 14:37:08;;;;;;;6.47;5.88;;;;;;;;;;5092875;28;20229;-86
2023/05/20 14:39:35;;;;;;;6.47;5.93;;;;;;;;;;5064898;22;20233;-82
2023/05/20 14:42:03;;;;;;;6.38;5.78;;;;;;;;;;5031116;28;20581;-82
2023/05/20 14:44:30;;;;;;;6.97;6.28;;;;;;;;;;5031768;28;20214;-81
2023/05/20 14:46:57;;;;;;;6.65;5.85;;;;;;;;;;5031243;28;20231;-86
2023/05/20 14:49:24;;;;;;;6.60;6.00;;;;;;;;;;5031521;28;20238;-82